Karval, Colorado
Current Conditions -  °F | °C
As of 10:55 AM on Friday 21 Nov 2014 (Local Time) from KLIC Reporting Station
Clear Clear  
Wind Chill: 51°   Ceiling: Unl
Heat Index: 51°   Visibility: 10mi
Dew Point: 20°   Wind: 12mph
Humidity: 29%   Direction: 340°NNW
Pressure: 29.96"   Gusts: NA
Location:  38.73°N, 103.54°W
Report Text: KLIC 211755Z AUTO 34010KT 10SM CLR 11/M07 A2996 RMK AO2 SLP133 T01061067 10106 21094 58006
Loading
Personal Weather Stations






























Interactive Weather Map New forecast layout! Learn more

10-Day Weather Forecast

Advertisements
Track Severe Weather on mobile